sensor_id;sensor_type;location;lat;lon;timestamp;temperature;humidity
66190;DHT22;52992;52.084;5.412;2022-12-18T00:01:27;2.30;56.40
66190;DHT22;52992;52.084;5.412;2022-12-18T00:03:55;2.30;56.30
66190;DHT22;52992;52.084;5.412;2022-12-18T00:06:23;2.30;56.50
66190;DHT22;52992;52.084;5.412;2022-12-18T00:08:52;2.30;56.20
66190;DHT22;52992;52.084;5.412;2022-12-18T00:11:21;2.20;56.20
66190;DHT22;52992;52.084;5.412;2022-12-18T00:13:49;2.10;56.70
66190;DHT22;52992;52.084;5.412;2022-12-18T00:16:18;2.10;56.70
66190;DHT22;52992;52.084;5.412;2022-12-18T00:18:51;2.00;56.80
66190;DHT22;52992;52.084;5.412;2022-12-18T00:21:19;2.00;57.00
66190;DHT22;52992;52.084;5.412;2022-12-18T00:23:47;2.00;57.10
66190;DHT22;52992;52.084;5.412;2022-12-18T00:26:19;2.10;56.80
66190;DHT22;52992;52.084;5.412;2022-12-18T00:28:49;2.20;56.40
66190;DHT22;52992;52.084;5.412;2022-12-18T00:31:19;2.30;56.30
66190;DHT22;52992;52.084;5.412;2022-12-18T00:33:46;2.40;56.10
66190;DHT22;52992;52.084;5.412;2022-12-18T00:36:20;2.40;55.70
66190;DHT22;52992;52.084;5.412;2022-12-18T00:38:48;2.40;55.70
66190;DHT22;52992;52.084;5.412;2022-12-18T00:41:17;2.40;55.70
66190;DHT22;52992;52.084;5.412;2022-12-18T00:44:06;2.40;55.50
66190;DHT22;52992;52.084;5.412;2022-12-18T00:46:33;2.30;55.60
66190;DHT22;52992;52.084;5.412;2022-12-18T00:48:59;2.30;55.60
66190;DHT22;52992;52.084;5.412;2022-12-18T00:51:26;2.20;55.80
66190;DHT22;52992;52.084;5.412;2022-12-18T00:53:53;2.20;56.00
66190;DHT22;52992;52.084;5.412;2022-12-18T00:56:20;2.10;56.00
66190;DHT22;52992;52.084;5.412;2022-12-18T00:58:47;2.10;56.20
66190;DHT22;52992;52.084;5.412;2022-12-18T01:01:15;2.00;56.10
66190;DHT22;52992;52.084;5.412;2022-12-18T01:03:42;2.00;56.30
66190;DHT22;52992;52.084;5.412;2022-12-18T01:06:10;2.00;56.30
66190;DHT22;52992;52.084;5.412;2022-12-18T01:08:38;2.00;56.20
66190;DHT22;52992;52.084;5.412;2022-12-18T01:11:10;1.90;56.20
66190;DHT22;52992;52.084;5.412;2022-12-18T01:13:38;1.90;56.10
66190;DHT22;52992;52.084;5.412;2022-12-18T01:16:06;1.90;56.30
66190;DHT22;52992;52.084;5.412;2022-12-18T01:18:34;1.80;56.20
66190;DHT22;52992;52.084;5.412;2022-12-18T01:21:10;1.70;56.50
66190;DHT22;52992;52.084;5.412;2022-12-18T01:23:37;1.70;56.60
66190;DHT22;52992;52.084;5.412;2022-12-18T01:26:13;1.70;56.50
66190;DHT22;52992;52.084;5.412;2022-12-18T01:28:41;1.60;56.30
66190;DHT22;52992;52.084;5.412;2022-12-18T01:31:23;1.60;56.50
66190;DHT22;52992;52.084;5.412;2022-12-18T01:33:51;1.60;56.60
66190;DHT22;52992;52.084;5.412;2022-12-18T01:36:21;1.50;56.50
66190;DHT22;52992;52.084;5.412;2022-12-18T01:38:49;1.50;56.50
66190;DHT22;52992;52.084;5.412;2022-12-18T01:41:18;1.50;56.50
66190;DHT22;52992;52.084;5.412;2022-12-18T01:46:20;1.60;56.30
66190;DHT22;52992;52.084;5.412;2022-12-18T01:48:50;1.50;56.40
66190;DHT22;52992;52.084;5.412;2022-12-18T01:51:19;1.50;56.30
66190;DHT22;52992;52.084;5.412;2022-12-18T01:53:47;1.50;56.20
66190;DHT22;52992;52.084;5.412;2022-12-18T01:56:21;1.50;56.10
66190;DHT22;52992;52.084;5.412;2022-12-18T01:59:02;1.50;56.10
66190;DHT22;52992;52.084;5.412;2022-12-18T02:01:30;1.50;56.00
66190;DHT22;52992;52.084;5.412;2022-12-18T02:04:30;1.40;55.90
66190;DHT22;52992;52.084;5.412;2022-12-18T02:09:46;1.40;55.90
66190;DHT22;52992;52.084;5.412;2022-12-18T02:12:20;1.40;55.90
66190;DHT22;52992;52.084;5.412;2022-12-18T02:17:55;1.40;56.10
66190;DHT22;52992;52.084;5.412;2022-12-18T02:20:49;1.40;56.00
66190;DHT22;52992;52.084;5.412;2022-12-18T02:23:24;1.30;56.00
66190;DHT22;52992;52.084;5.412;2022-12-18T02:28:42;1.30;55.90
66190;DHT22;52992;52.084;5.412;2022-12-18T02:31:16;1.30;55.90
66190;DHT22;52992;52.084;5.412;2022-12-18T02:33:46;1.30;55.90
66190;DHT22;52992;52.084;5.412;2022-12-18T02:36:15;1.30;55.80
66190;DHT22;52992;52.084;5.412;2022-12-18T02:38:44;1.30;55.80
66190;DHT22;52992;52.084;5.412;2022-12-18T02:41:15;1.20;55.60
66190;DHT22;52992;52.084;5.412;2022-12-18T02:43:48;1.20;55.60
66190;DHT22;52992;52.084;5.412;2022-12-18T02:49:26;1.20;55.60
66190;DHT22;52992;52.084;5.412;2022-12-18T02:57:31;1.10;55.60
66190;DHT22;52992;52.084;5.412;2022-12-18T03:00:08;1.00;55.60
66190;DHT22;52992;52.084;5.412;2022-12-18T03:03:01;1.00;55.50
66190;DHT22;52992;52.084;5.412;2022-12-18T03:06:10;1.00;55.40
66190;DHT22;52992;52.084;5.412;2022-12-18T03:08:41;0.90;55.40
66190;DHT22;52992;52.084;5.412;2022-12-18T03:11:10;0.90;55.40
66190;DHT22;52992;52.084;5.412;2022-12-18T03:13:52;0.90;55.50
66190;DHT22;52992;52.084;5.412;2022-12-18T03:16:28;0.90;55.50
66190;DHT22;52992;52.084;5.412;2022-12-18T03:18:59;0.90;55.40
66190;DHT22;52992;52.084;5.412;2022-12-18T03:21:34;0.90;55.50
66190;DHT22;52992;52.084;5.412;2022-12-18T03:24:06;0.90;55.40
66190;DHT22;52992;52.084;5.412;2022-12-18T03:26:36;0.90;55.40
66190;DHT22;52992;52.084;5.412;2022-12-18T03:29:11;0.90;55.30
66190;DHT22;52992;52.084;5.412;2022-12-18T03:31:41;0.80;55.30
66190;DHT22;52992;52.084;5.412;2022-12-18T03:34:13;0.80;55.20
66190;DHT22;52992;52.084;5.412;2022-12-18T03:36:45;0.80;55.30
66190;DHT22;52992;52.084;5.412;2022-12-18T03:39:13;0.80;55.20
66190;DHT22;52992;52.084;5.412;2022-12-18T03:41:51;0.80;55.20
66190;DHT22;52992;52.084;5.412;2022-12-18T03:44:57;0.80;55.20
66190;DHT22;52992;52.084;5.412;2022-12-18T03:47:36;0.70;55.20
66190;DHT22;52992;52.084;5.412;2022-12-18T03:50:20;0.70;55.20
66190;DHT22;52992;52.084;5.412;2022-12-18T03:55:21;0.70;55.40
66190;DHT22;52992;52.084;5.412;2022-12-18T03:57:56;0.70;55.30
66190;DHT22;52992;52.084;5.412;2022-12-18T04:00:27;0.60;55.30
66190;DHT22;52992;52.084;5.412;2022-12-18T04:03:04;0.60;55.30
66190;DHT22;52992;52.084;5.412;2022-12-18T04:05:40;0.60;55.50
66190;DHT22;52992;52.084;5.412;2022-12-18T04:08:09;0.60;55.30
66190;DHT22;52992;52.084;5.412;2022-12-18T04:10:40;0.60;55.40
66190;DHT22;52992;52.084;5.412;2022-12-18T04:13:06;0.60;55.40
66190;DHT22;52992;52.084;5.412;2022-12-18T04:15:35;0.60;55.30
66190;DHT22;52992;52.084;5.412;2022-12-18T04:18:04;0.60;55.30
66190;DHT22;52992;52.084;5.412;2022-12-18T04:20:38;0.60;55.10
66190;DHT22;52992;52.084;5.412;2022-12-18T04:23:05;0.50;55.10
66190;DHT22;52992;52.084;5.412;2022-12-18T04:25:32;0.50;55.00
66190;DHT22;52992;52.084;5.412;2022-12-18T04:28:10;0.50;55.10
66190;DHT22;52992;52.084;5.412;2022-12-18T04:30:38;0.50;55.00
66190;DHT22;52992;52.084;5.412;2022-12-18T04:33:12;0.50;55.00
66190;DHT22;52992;52.084;5.412;2022-12-18T04:35:40;0.50;55.10
66190;DHT22;52992;52.084;5.412;2022-12-18T04:38:07;0.50;55.10
66190;DHT22;52992;52.084;5.412;2022-12-18T04:40:35;0.50;55.00
66190;DHT22;52992;52.084;5.412;2022-12-18T04:43:05;0.40;54.80
66190;DHT22;52992;52.084;5.412;2022-12-18T04:45:33;0.40;54.70
66190;DHT22;52992;52.084;5.412;2022-12-18T04:48:03;0.40;54.90
66190;DHT22;52992;52.084;5.412;2022-12-18T04:50:30;0.30;54.80
66190;DHT22;52992;52.084;5.412;2022-12-18T04:52:58;0.20;55.20
66190;DHT22;52992;52.084;5.412;2022-12-18T04:55:24;0.20;56.20
66190;DHT22;52992;52.084;5.412;2022-12-18T04:57:51;0.20;55.40
66190;DHT22;52992;52.084;5.412;2022-12-18T05:00:19;0.20;56.00
66190;DHT22;52992;52.084;5.412;2022-12-18T05:02:45;0.20;55.20
66190;DHT22;52992;52.084;5.412;2022-12-18T05:05:12;0.10;55.50
66190;DHT22;52992;52.084;5.412;2022-12-18T05:07:39;0.10;55.40
66190;DHT22;52992;52.084;5.412;2022-12-18T05:10:07;0.10;55.70
66190;DHT22;52992;52.084;5.412;2022-12-18T05:12:34;0.10;55.60
66190;DHT22;52992;52.084;5.412;2022-12-18T05:15:21;0.20;55.30
66190;DHT22;52992;52.084;5.412;2022-12-18T05:17:47;0.20;55.20
66190;DHT22;52992;52.084;5.412;2022-12-18T05:20:14;0.20;55.00
66190;DHT22;52992;52.084;5.412;2022-12-18T05:22:41;0.30;55.00
66190;DHT22;52992;52.084;5.412;2022-12-18T05:25:08;0.30;55.00
66190;DHT22;52992;52.084;5.412;2022-12-18T05:27:35;0.30;54.90
66190;DHT22;52992;52.084;5.412;2022-12-18T05:30:02;0.30;54.80
66190;DHT22;52992;52.084;5.412;2022-12-18T05:32:29;0.20;54.70
66190;DHT22;52992;52.084;5.412;2022-12-18T05:34:56;0.30;54.70
66190;DHT22;52992;52.084;5.412;2022-12-18T05:37:23;0.30;54.60
66190;DHT22;52992;52.084;5.412;2022-12-18T05:39:50;0.20;55.20
66190;DHT22;52992;52.084;5.412;2022-12-18T05:42:17;0.30;54.60
66190;DHT22;52992;52.084;5.412;2022-12-18T05:44:43;0.30;54.60
66190;DHT22;52992;52.084;5.412;2022-12-18T05:47:10;0.20;54.40
66190;DHT22;52992;52.084;5.412;2022-12-18T05:49:37;0.20;54.40
66190;DHT22;52992;52.084;5.412;2022-12-18T05:52:04;0.20;54.40
66190;DHT22;52992;52.084;5.412;2022-12-18T05:54:31;0.20;54.30
66190;DHT22;52992;52.084;5.412;2022-12-18T05:56:58;0.20;54.40
66190;DHT22;52992;52.084;5.412;2022-12-18T05:59:25;0.20;54.50
66190;DHT22;52992;52.084;5.412;2022-12-18T06:01:51;0.20;54.50
66190;DHT22;52992;52.084;5.412;2022-12-18T06:04:18;0.20;54.60
66190;DHT22;52992;52.084;5.412;2022-12-18T06:06:45;0.20;54.50
66190;DHT22;52992;52.084;5.412;2022-12-18T06:09:12;0.20;54.50
66190;DHT22;52992;52.084;5.412;2022-12-18T06:11:39;0.20;54.70
66190;DHT22;52992;52.084;5.412;2022-12-18T06:14:06;0.10;54.60
66190;DHT22;52992;52.084;5.412;2022-12-18T06:16:33;0.10;54.60
66190;DHT22;52992;52.084;5.412;2022-12-18T06:19:02;0.10;54.70
66190;DHT22;52992;52.084;5.412;2022-12-18T06:21:30;0.10;54.70
66190;DHT22;52992;52.084;5.412;2022-12-18T06:23:57;0.00;54.70
66190;DHT22;52992;52.084;5.412;2022-12-18T06:26:24;0.00;54.80
66190;DHT22;52992;52.084;5.412;2022-12-18T06:28:54;0.00;54.80
66190;DHT22;52992;52.084;5.412;2022-12-18T06:31:21;0.00;54.70
66190;DHT22;52992;52.084;5.412;2022-12-18T06:33:47;0.00;54.60
66190;DHT22;52992;52.084;5.412;2022-12-18T06:36:14;0.00;54.60
66190;DHT22;52992;52.084;5.412;2022-12-18T06:38:43;0.00;54.50
66190;DHT22;52992;52.084;5.412;2022-12-18T06:41:12;0.00;54.40
66190;DHT22;52992;52.084;5.412;2022-12-18T06:43:39;0.00;54.40
66190;DHT22;52992;52.084;5.412;2022-12-18T06:46:07;0.00;54.50
66190;DHT22;52992;52.084;5.412;2022-12-18T06:48:35;0.00;54.40
66190;DHT22;52992;52.084;5.412;2022-12-18T06:51:02;0.00;54.40
66190;DHT22;52992;52.084;5.412;2022-12-18T06:53:29;0.00;54.40
66190;DHT22;52992;52.084;5.412;2022-12-18T06:56:04;0.00;54.30
66190;DHT22;52992;52.084;5.412;2022-12-18T06:58:36;0.00;54.20
66190;DHT22;52992;52.084;5.412;2022-12-18T07:01:05;0.00;54.40
66190;DHT22;52992;52.084;5.412;2022-12-18T07:03:32;0.00;54.40
66190;DHT22;52992;52.084;5.412;2022-12-18T07:05:59;0.00;54.40
66190;DHT22;52992;52.084;5.412;2022-12-18T07:08:26;0.00;54.30
66190;DHT22;52992;52.084;5.412;2022-12-18T07:10:52;0.00;54.20
66190;DHT22;52992;52.084;5.412;2022-12-18T07:13:22;0.00;54.30
66190;DHT22;52992;52.084;5.412;2022-12-18T07:15:49;0.00;54.30
66190;DHT22;52992;52.084;5.412;2022-12-18T07:18:16;0.00;55.10
66190;DHT22;52992;52.084;5.412;2022-12-18T07:20:42;-0.10;54.50
66190;DHT22;52992;52.084;5.412;2022-12-18T07:23:09;-0.10;54.50
66190;DHT22;52992;52.084;5.412;2022-12-18T07:25:36;-0.10;54.60
66190;DHT22;52992;52.084;5.412;2022-12-18T07:28:03;-0.10;54.70
66190;DHT22;52992;52.084;5.412;2022-12-18T07:30:30;-0.10;54.70
66190;DHT22;52992;52.084;5.412;2022-12-18T07:32:57;-0.10;54.60
66190;DHT22;52992;52.084;5.412;2022-12-18T07:35:24;-0.10;54.50
66190;DHT22;52992;52.084;5.412;2022-12-18T07:37:51;-0.10;54.50
66190;DHT22;52992;52.084;5.412;2022-12-18T07:40:18;-0.10;54.40
66190;DHT22;52992;52.084;5.412;2022-12-18T07:42:44;-0.20;54.30
66190;DHT22;52992;52.084;5.412;2022-12-18T07:45:11;-0.10;54.40
66190;DHT22;52992;52.084;5.412;2022-12-18T07:47:38;-0.10;54.40
66190;DHT22;52992;52.084;5.412;2022-12-18T07:50:08;-0.10;54.30
66190;DHT22;52992;52.084;5.412;2022-12-18T07:52:34;-0.10;54.40
66190;DHT22;52992;52.084;5.412;2022-12-18T07:55:01;-0.10;54.30
66190;DHT22;52992;52.084;5.412;2022-12-18T07:57:28;0.00;54.10
66190;DHT22;52992;52.084;5.412;2022-12-18T08:00:15;0.00;54.00
66190;DHT22;52992;52.084;5.412;2022-12-18T08:02:42;0.00;53.80
66190;DHT22;52992;52.084;5.412;2022-12-18T08:05:09;0.00;53.80
66190;DHT22;52992;52.084;5.412;2022-12-18T08:07:36;0.00;53.90
66190;DHT22;52992;52.084;5.412;2022-12-18T08:10:03;0.10;53.90
66190;DHT22;52992;52.084;5.412;2022-12-18T08:12:32;0.10;53.90
66190;DHT22;52992;52.084;5.412;2022-12-18T08:14:58;0.20;53.70
66190;DHT22;52992;52.084;5.412;2022-12-18T08:17:25;0.20;53.50
66190;DHT22;52992;52.084;5.412;2022-12-18T08:19:52;0.30;53.60
66190;DHT22;52992;52.084;5.412;2022-12-18T08:22:19;0.40;53.30
66190;DHT22;52992;52.084;5.412;2022-12-18T08:24:45;0.40;53.30
66190;DHT22;52992;52.084;5.412;2022-12-18T08:27:12;0.50;53.00
66190;DHT22;52992;52.084;5.412;2022-12-18T08:29:55;0.40;53.10
66190;DHT22;52992;52.084;5.412;2022-12-18T08:32:22;0.40;53.40
66190;DHT22;52992;52.084;5.412;2022-12-18T08:34:49;0.40;53.50
66190;DHT22;52992;52.084;5.412;2022-12-18T08:37:16;0.40;53.60
66190;DHT22;52992;52.084;5.412;2022-12-18T08:39:43;0.50;53.40
66190;DHT22;52992;52.084;5.412;2022-12-18T08:42:10;0.50;53.20
66190;DHT22;52992;52.084;5.412;2022-12-18T08:44:55;0.60;53.10
66190;DHT22;52992;52.084;5.412;2022-12-18T08:47:22;0.70;53.10
66190;DHT22;52992;52.084;5.412;2022-12-18T08:49:48;0.70;53.00
66190;DHT22;52992;52.084;5.412;2022-12-18T08:52:15;0.70;53.00
66190;DHT22;52992;52.084;5.412;2022-12-18T08:54:42;0.80;52.90
66190;DHT22;52992;52.084;5.412;2022-12-18T08:57:09;0.80;52.80
66190;DHT22;52992;52.084;5.412;2022-12-18T08:59:36;0.90;52.80
66190;DHT22;52992;52.084;5.412;2022-12-18T09:02:02;1.00;52.60
66190;DHT22;52992;52.084;5.412;2022-12-18T09:04:29;1.00;52.50
66190;DHT22;52992;52.084;5.412;2022-12-18T09:06:56;1.10;52.50
66190;DHT22;52992;52.084;5.412;2022-12-18T09:09:23;1.20;52.40
66190;DHT22;52992;52.084;5.412;2022-12-18T09:11:50;1.20;52.00
66190;DHT22;52992;52.084;5.412;2022-12-18T09:14:17;1.30;52.00
66190;DHT22;52992;52.084;5.412;2022-12-18T09:16:43;1.40;51.90
66190;DHT22;52992;52.084;5.412;2022-12-18T09:19:10;1.40;51.90
66190;DHT22;52992;52.084;5.412;2022-12-18T09:21:37;1.50;51.70
66190;DHT22;52992;52.084;5.412;2022-12-18T09:24:13;1.50;51.80
66190;DHT22;52992;52.084;5.412;2022-12-18T09:26:40;1.60;51.60
66190;DHT22;52992;52.084;5.412;2022-12-18T09:29:09;1.60;51.60
66190;DHT22;52992;52.084;5.412;2022-12-18T09:31:37;1.60;51.30
66190;DHT22;52992;52.084;5.412;2022-12-18T09:34:04;1.60;51.50
66190;DHT22;52992;52.084;5.412;2022-12-18T09:36:31;1.70;51.50
66190;DHT22;52992;52.084;5.412;2022-12-18T09:38:58;1.70;51.20
66190;DHT22;52992;52.084;5.412;2022-12-18T09:41:44;1.70;51.40
66190;DHT22;52992;52.084;5.412;2022-12-18T09:44:35;1.80;51.20
66190;DHT22;52992;52.084;5.412;2022-12-18T09:47:24;1.80;50.90
66190;DHT22;52992;52.084;5.412;2022-12-18T09:49:57;1.90;51.10
66190;DHT22;52992;52.084;5.412;2022-12-18T09:57:39;2.10;50.90
66190;DHT22;52992;52.084;5.412;2022-12-18T10:00:16;2.20;50.80
66190;DHT22;52992;52.084;5.412;2022-12-18T10:02:45;2.30;50.60
66190;DHT22;52992;52.084;5.412;2022-12-18T10:05:20;2.50;50.10
66190;DHT22;52992;52.084;5.412;2022-12-18T10:08:00;2.50;50.10
66190;DHT22;52992;52.084;5.412;2022-12-18T10:10:46;2.50;50.20
66190;DHT22;52992;52.084;5.412;2022-12-18T10:13:36;2.50;50.90
66190;DHT22;52992;52.084;5.412;2022-12-18T10:18:48;2.50;50.10
66190;DHT22;52992;52.084;5.412;2022-12-18T10:21:21;2.60;50.10
66190;DHT22;52992;52.084;5.412;2022-12-18T10:26:38;2.70;50.00
66190;DHT22;52992;52.084;5.412;2022-12-18T10:29:16;2.70;50.20
66190;DHT22;52992;52.084;5.412;2022-12-18T10:31:43;2.70;50.00
66190;DHT22;52992;52.084;5.412;2022-12-18T10:34:12;2.80;49.70
66190;DHT22;52992;52.084;5.412;2022-12-18T10:36:39;2.80;49.80
66190;DHT22;52992;52.084;5.412;2022-12-18T10:39:19;2.80;49.50
66190;DHT22;52992;52.084;5.412;2022-12-18T10:41:46;2.70;49.60
66190;DHT22;52992;52.084;5.412;2022-12-18T10:44:23;2.70;50.00
66190;DHT22;52992;52.084;5.412;2022-12-18T10:46:54;2.70;50.20
66190;DHT22;52992;52.084;5.412;2022-12-18T10:49:26;2.80;50.20
66190;DHT22;52992;52.084;5.412;2022-12-18T10:52:07;2.90;50.20
66190;DHT22;52992;52.084;5.412;2022-12-18T10:54:35;3.00;50.00
66190;DHT22;52992;52.084;5.412;2022-12-18T10:57:29;3.10;49.70
66190;DHT22;52992;52.084;5.412;2022-12-18T10:59:58;3.10;49.40
66190;DHT22;52992;52.084;5.412;2022-12-18T11:02:33;3.20;49.50
66190;DHT22;52992;52.084;5.412;2022-12-18T11:05:01;3.30;48.90
66190;DHT22;52992;52.084;5.412;2022-12-18T11:07:49;3.30;49.40
66190;DHT22;52992;52.084;5.412;2022-12-18T11:10:18;3.30;49.40
66190;DHT22;52992;52.084;5.412;2022-12-18T11:12:46;3.40;49.50
66190;DHT22;52992;52.084;5.412;2022-12-18T11:15:23;3.40;49.30
66190;DHT22;52992;52.084;5.412;2022-12-18T11:17:51;3.50;49.30
66190;DHT22;52992;52.084;5.412;2022-12-18T11:20:43;3.50;49.00
66190;DHT22;52992;52.084;5.412;2022-12-18T11:23:12;3.50;49.00
66190;DHT22;52992;52.084;5.412;2022-12-18T11:25:40;3.60;49.10
66190;DHT22;52992;52.084;5.412;2022-12-18T11:28:34;3.60;48.90
66190;DHT22;52992;52.084;5.412;2022-12-18T11:36:46;3.60;48.90
66190;DHT22;52992;52.084;5.412;2022-12-18T11:39:36;3.60;48.50
66190;DHT22;52992;52.084;5.412;2022-12-18T11:42:20;3.70;48.80
66190;DHT22;52992;52.084;5.412;2022-12-18T11:47:37;3.80;48.80
66190;DHT22;52992;52.084;5.412;2022-12-18T11:50:14;3.80;48.40
66190;DHT22;52992;52.084;5.412;2022-12-18T11:52:42;3.90;48.70
66190;DHT22;52992;52.084;5.412;2022-12-18T11:55:27;4.00;48.50
66190;DHT22;52992;52.084;5.412;2022-12-18T11:58:03;4.00;47.80
66190;DHT22;52992;52.084;5.412;2022-12-18T12:00:31;4.00;48.20
66190;DHT22;52992;52.084;5.412;2022-12-18T12:03:21;4.00;48.10
66190;DHT22;52992;52.084;5.412;2022-12-18T12:11:58;3.80;48.50
66190;DHT22;52992;52.084;5.412;2022-12-18T12:17:02;3.90;48.80
66190;DHT22;52992;52.084;5.412;2022-12-18T12:20:01;3.90;48.70
66190;DHT22;52992;52.084;5.412;2022-12-18T12:25:44;4.10;48.30
66190;DHT22;52992;52.084;5.412;2022-12-18T12:28:30;4.10;48.40
66190;DHT22;52992;52.084;5.412;2022-12-18T12:34:16;4.10;48.50
66190;DHT22;52992;52.084;5.412;2022-12-18T12:39:35;4.10;48.20
66190;DHT22;52992;52.084;5.412;2022-12-18T12:42:18;4.10;48.50
66190;DHT22;52992;52.084;5.412;2022-12-18T12:45:06;4.20;48.50
66190;DHT22;52992;52.084;5.412;2022-12-18T12:47:42;4.20;48.20
66190;DHT22;52992;52.084;5.412;2022-12-18T12:50:16;4.10;48.50
66190;DHT22;52992;52.084;5.412;2022-12-18T12:52:54;4.10;48.80
66190;DHT22;52992;52.084;5.412;2022-12-18T12:55:25;4.20;48.80
66190;DHT22;52992;52.084;5.412;2022-12-18T13:00:36;4.30;48.50
66190;DHT22;52992;52.084;5.412;2022-12-18T13:03:27;4.40;48.00
66190;DHT22;52992;52.084;5.412;2022-12-18T13:09:01;4.40;48.20
66190;DHT22;52992;52.084;5.412;2022-12-18T13:11:40;4.40;48.00
66190;DHT22;52992;52.084;5.412;2022-12-18T13:20:11;4.40;48.30
66190;DHT22;52992;52.084;5.412;2022-12-18T13:22:44;4.40;48.50
66190;DHT22;52992;52.084;5.412;2022-12-18T13:25:32;4.50;48.20
66190;DHT22;52992;52.084;5.412;2022-12-18T13:28:14;4.50;48.30
66190;DHT22;52992;52.084;5.412;2022-12-18T13:30:50;4.50;48.30
66190;DHT22;52992;52.084;5.412;2022-12-18T13:36:16;4.50;48.30
66190;DHT22;52992;52.084;5.412;2022-12-18T13:38:41;4.50;48.30
66190;DHT22;52992;52.084;5.412;2022-12-18T13:43:46;4.50;48.20
66190;DHT22;52992;52.084;5.412;2022-12-18T13:46:42;4.40;48.00
66190;DHT22;52992;52.084;5.412;2022-12-18T13:51:50;4.40;48.80
66190;DHT22;52992;52.084;5.412;2022-12-18T13:56:51;4.50;48.30
66190;DHT22;52992;52.084;5.412;2022-12-18T13:59:20;4.50;48.10
66190;DHT22;52992;52.084;5.412;2022-12-18T14:01:59;4.40;48.30
66190;DHT22;52992;52.084;5.412;2022-12-18T14:04:32;4.40;48.00
66190;DHT22;52992;52.084;5.412;2022-12-18T14:07:35;4.40;47.70
66190;DHT22;52992;52.084;5.412;2022-12-18T14:10:12;4.30;48.40
66190;DHT22;52992;52.084;5.412;2022-12-18T14:13:06;4.40;47.90
66190;DHT22;52992;52.084;5.412;2022-12-18T14:15:41;4.30;48.40
66190;DHT22;52992;52.084;5.412;2022-12-18T14:20:57;4.40;48.00
66190;DHT22;52992;52.084;5.412;2022-12-18T14:23:38;4.60;48.40
66190;DHT22;52992;52.084;5.412;2022-12-18T14:26:27;4.40;48.10
66190;DHT22;52992;52.084;5.412;2022-12-18T14:29:01;4.50;48.30
66190;DHT22;52992;52.084;5.412;2022-12-18T14:31:30;4.50;48.20
66190;DHT22;52992;52.084;5.412;2022-12-18T14:33:58;4.40;48.20
66190;DHT22;52992;52.084;5.412;2022-12-18T14:36:27;4.40;48.60
66190;DHT22;52992;52.084;5.412;2022-12-18T14:38:58;4.30;48.50
66190;DHT22;52992;52.084;5.412;2022-12-18T14:41:26;4.30;48.60
66190;DHT22;52992;52.084;5.412;2022-12-18T14:43:54;4.30;48.80
66190;DHT22;52992;52.084;5.412;2022-12-18T14:48:51;4.30;48.70
66190;DHT22;52992;52.084;5.412;2022-12-18T14:51:20;4.30;49.00
66190;DHT22;52992;52.084;5.412;2022-12-18T14:53:53;4.30;48.70
66190;DHT22;52992;52.084;5.412;2022-12-18T14:56:24;4.30;48.70
66190;DHT22;52992;52.084;5.412;2022-12-18T14:59:00;4.30;48.50
66190;DHT22;52992;52.084;5.412;2022-12-18T15:01:34;4.30;48.50
66190;DHT22;52992;52.084;5.412;2022-12-18T15:04:02;4.30;48.40
66190;DHT22;52992;52.084;5.412;2022-12-18T15:06:35;4.20;49.40
66190;DHT22;52992;52.084;5.412;2022-12-18T15:09:23;4.20;48.00
66190;DHT22;52992;52.084;5.412;2022-12-18T15:11:59;4.20;48.20
66190;DHT22;52992;52.084;5.412;2022-12-18T15:17:00;4.30;48.10
66190;DHT22;52992;52.084;5.412;2022-12-18T15:19:35;4.30;47.90
66190;DHT22;52992;52.084;5.412;2022-12-18T15:22:04;4.30;47.30
66190;DHT22;52992;52.084;5.412;2022-12-18T15:24:32;4.20;47.40
66190;DHT22;52992;52.084;5.412;2022-12-18T15:27:00;4.20;47.80
66190;DHT22;52992;52.084;5.412;2022-12-18T15:29:27;4.20;47.60
66190;DHT22;52992;52.084;5.412;2022-12-18T15:32:04;4.20;47.30
66190;DHT22;52992;52.084;5.412;2022-12-18T15:34:32;4.20;47.70
66190;DHT22;52992;52.084;5.412;2022-12-18T15:37:00;4.20;47.20
66190;DHT22;52992;52.084;5.412;2022-12-18T15:39:27;4.20;47.50
66190;DHT22;52992;52.084;5.412;2022-12-18T15:41:54;4.10;47.60
66190;DHT22;52992;52.084;5.412;2022-12-18T15:44:39;4.20;47.80
66190;DHT22;52992;52.084;5.412;2022-12-18T15:47:11;4.10;47.40
66190;DHT22;52992;52.084;5.412;2022-12-18T15:49:39;4.10;47.70
66190;DHT22;52992;52.084;5.412;2022-12-18T15:52:08;4.20;47.60
66190;DHT22;52992;52.084;5.412;2022-12-18T15:54:38;4.20;47.20
66190;DHT22;52992;52.084;5.412;2022-12-18T15:57:24;4.10;47.50
66190;DHT22;52992;52.084;5.412;2022-12-18T15:59:52;4.10;47.60
66190;DHT22;52992;52.084;5.412;2022-12-18T16:02:23;4.20;47.40
66190;DHT22;52992;52.084;5.412;2022-12-18T16:04:51;4.20;47.50
66190;DHT22;52992;52.084;5.412;2022-12-18T16:07:18;4.20;46.70
66190;DHT22;52992;52.084;5.412;2022-12-18T16:09:51;4.20;47.40
66190;DHT22;52992;52.084;5.412;2022-12-18T16:12:21;4.10;47.10
66190;DHT22;52992;52.084;5.412;2022-12-18T16:14:49;4.10;47.80
66190;DHT22;52992;52.084;5.412;2022-12-18T16:17:15;4.10;47.70
66190;DHT22;52992;52.084;5.412;2022-12-18T16:19:42;4.10;47.90
66190;DHT22;52992;52.084;5.412;2022-12-18T16:22:35;4.10;47.90
66190;DHT22;52992;52.084;5.412;2022-12-18T16:25:02;4.10;47.80
66190;DHT22;52992;52.084;5.412;2022-12-18T16:27:29;4.20;47.90
66190;DHT22;52992;52.084;5.412;2022-12-18T16:29:56;4.20;47.60
66190;DHT22;52992;52.084;5.412;2022-12-18T16:32:23;4.20;47.70
66190;DHT22;52992;52.084;5.412;2022-12-18T16:34:50;4.20;47.80
66190;DHT22;52992;52.084;5.412;2022-12-18T16:37:17;4.00;47.80
66190;DHT22;52992;52.084;5.412;2022-12-18T16:39:44;4.10;47.60
66190;DHT22;52992;52.084;5.412;2022-12-18T16:42:14;4.20;47.20
66190;DHT22;52992;52.084;5.412;2022-12-18T16:44:43;4.30;47.30
66190;DHT22;52992;52.084;5.412;2022-12-18T16:47:10;4.30;47.00
66190;DHT22;52992;52.084;5.412;2022-12-18T16:49:41;4.30;46.90
66190;DHT22;52992;52.084;5.412;2022-12-18T16:52:08;4.30;47.30
66190;DHT22;52992;52.084;5.412;2022-12-18T16:54:35;4.30;47.20
66190;DHT22;52992;52.084;5.412;2022-12-18T16:57:03;4.30;46.90
66190;DHT22;52992;52.084;5.412;2022-12-18T16:59:30;4.30;47.20
66190;DHT22;52992;52.084;5.412;2022-12-18T17:01:57;4.20;47.10
66190;DHT22;52992;52.084;5.412;2022-12-18T17:04:24;4.20;47.00
66190;DHT22;52992;52.084;5.412;2022-12-18T17:06:51;4.20;47.00
66190;DHT22;52992;52.084;5.412;2022-12-18T17:09:20;4.20;47.40
66190;DHT22;52992;52.084;5.412;2022-12-18T17:11:54;4.10;47.30
66190;DHT22;52992;52.084;5.412;2022-12-18T17:14:23;4.10;46.70
66190;DHT22;52992;52.084;5.412;2022-12-18T17:16:53;4.10;47.00
66190;DHT22;52992;52.084;5.412;2022-12-18T17:19:40;4.10;47.40
66190;DHT22;52992;52.084;5.412;2022-12-18T17:22:07;4.20;47.50
66190;DHT22;52992;52.084;5.412;2022-12-18T17:24:34;4.20;47.30
66190;DHT22;52992;52.084;5.412;2022-12-18T17:27:03;4.20;47.50
66190;DHT22;52992;52.084;5.412;2022-12-18T17:29:30;4.20;47.40
66190;DHT22;52992;52.084;5.412;2022-12-18T17:31:56;4.20;47.50
66190;DHT22;52992;52.084;5.412;2022-12-18T17:34:26;4.20;47.00
66190;DHT22;52992;52.084;5.412;2022-12-18T17:36:53;4.20;47.10
66190;DHT22;52992;52.084;5.412;2022-12-18T17:39:20;4.20;47.40
66190;DHT22;52992;52.084;5.412;2022-12-18T17:41:48;4.20;47.30